sensor_id;sensor_type;location;lat;lon;timestamp;P1;durP1;ratioP1;P2;durP2;ratioP2
52033;SDS011;38045;52.988;6.536;2022-12-29T00:02:19;3.47;;;3.28;;
52033;SDS011;38045;52.988;6.536;2022-12-29T00:04:45;4.30;;;3.90;;
52033;SDS011;38045;52.988;6.536;2022-12-29T00:07:10;5.50;;;4.35;;
52033;SDS011;38045;52.988;6.536;2022-12-29T00:09:36;4.72;;;4.32;;
52033;SDS011;38045;52.988;6.536;2022-12-29T00:12:02;3.08;;;2.88;;
52033;SDS011;38045;52.988;6.536;2022-12-29T00:14:29;7.82;;;5.25;;
52033;SDS011;38045;52.988;6.536;2022-12-29T00:17:13;6.00;;;5.35;;
52033;SDS011;38045;52.988;6.536;2022-12-29T00:19:39;4.80;;;4.40;;
52033;SDS011;38045;52.988;6.536;2022-12-29T00:22:24;4.43;;;4.13;;
52033;SDS011;38045;52.988;6.536;2022-12-29T00:25:08;3.78;;;3.50;;
52033;SDS011;38045;52.988;6.536;2022-12-29T00:27:54;4.63;;;4.18;;
52033;SDS011;38045;52.988;6.536;2022-12-29T00:30:38;5.93;;;5.32;;
52033;SDS011;38045;52.988;6.536;2022-12-29T00:33:25;5.35;;;4.25;;
52033;SDS011;38045;52.988;6.536;2022-12-29T00:36:19;4.47;;;4.07;;
52033;SDS011;38045;52.988;6.536;2022-12-29T00:38:53;3.90;;;3.60;;
52033;SDS011;38045;52.988;6.536;2022-12-29T00:41:42;6.40;;;5.45;;
52033;SDS011;38045;52.988;6.536;2022-12-29T00:44:27;5.07;;;4.68;;
52033;SDS011;38045;52.988;6.536;2022-12-29T00:46:52;4.85;;;4.25;;
52033;SDS011;38045;52.988;6.536;2022-12-29T00:49:18;5.28;;;3.70;;
52033;SDS011;38045;52.988;6.536;2022-12-29T00:54:24;5.73;;;4.87;;
52033;SDS011;38045;52.988;6.536;2022-12-29T00:56:51;4.70;;;3.17;;
52033;SDS011;38045;52.988;6.536;2022-12-29T00:59:17;4.82;;;4.10;;
52033;SDS011;38045;52.988;6.536;2022-12-29T01:01:43;3.38;;;3.03;;
52033;SDS011;38045;52.988;6.536;2022-12-29T01:04:09;4.60;;;4.25;;
52033;SDS011;38045;52.988;6.536;2022-12-29T01:06:36;4.82;;;3.50;;
52033;SDS011;38045;52.988;6.536;2022-12-29T01:09:03;6.30;;;5.50;;
52033;SDS011;38045;52.988;6.536;2022-12-29T01:11:49;5.03;;;4.63;;
52033;SDS011;38045;52.988;6.536;2022-12-29T01:14:15;3.22;;;3.03;;
52033;SDS011;38045;52.988;6.536;2022-12-29T01:16:41;4.78;;;4.10;;
52033;SDS011;38045;52.988;6.536;2022-12-29T01:19:07;3.78;;;3.50;;
52033;SDS011;38045;52.988;6.536;2022-12-29T01:21:33;2.22;;;1.92;;
52033;SDS011;38045;52.988;6.536;2022-12-29T01:23:58;3.28;;;2.97;;
52033;SDS011;38045;52.988;6.536;2022-12-29T01:26:24;4.00;;;3.10;;
52033;SDS011;38045;52.988;6.536;2022-12-29T01:28:49;3.63;;;3.05;;
52033;SDS011;38045;52.988;6.536;2022-12-29T01:31:15;2.78;;;2.42;;
52033;SDS011;38045;52.988;6.536;2022-12-29T01:33:41;3.35;;;2.88;;
52033;SDS011;38045;52.988;6.536;2022-12-29T01:36:08;4.55;;;2.80;;
52033;SDS011;38045;52.988;6.536;2022-12-29T01:38:36;3.50;;;3.20;;
52033;SDS011;38045;52.988;6.536;2022-12-29T01:41:02;3.97;;;3.67;;
52033;SDS011;38045;52.988;6.536;2022-12-29T01:48:44;3.58;;;2.58;;
52033;SDS011;38045;52.988;6.536;2022-12-29T01:51:12;3.08;;;2.85;;
52033;SDS011;38045;52.988;6.536;2022-12-29T01:53:38;3.20;;;3.00;;
52033;SDS011;38045;52.988;6.536;2022-12-29T01:56:04;3.50;;;3.20;;
52033;SDS011;38045;52.988;6.536;2022-12-29T01:58:34;2.58;;;2.38;;
52033;SDS011;38045;52.988;6.536;2022-12-29T02:01:04;6.68;;;3.80;;
52033;SDS011;38045;52.988;6.536;2022-12-29T02:03:30;6.15;;;3.08;;
52033;SDS011;38045;52.988;6.536;2022-12-29T02:08:35;3.30;;;2.35;;
52033;SDS011;38045;52.988;6.536;2022-12-29T02:11:02;5.03;;;3.15;;
52033;SDS011;38045;52.988;6.536;2022-12-29T02:13:28;2.25;;;2.00;;
52033;SDS011;38045;52.988;6.536;2022-12-29T02:18:44;3.47;;;2.28;;
52033;SDS011;38045;52.988;6.536;2022-12-29T02:41:05;2.92;;;2.00;;
52033;SDS011;38045;52.988;6.536;2022-12-29T02:43:56;3.80;;;2.83;;
52033;SDS011;38045;52.988;6.536;2022-12-29T02:46:36;4.80;;;3.30;;
52033;SDS011;38045;52.988;6.536;2022-12-29T02:49:30;3.45;;;3.10;;
52033;SDS011;38045;52.988;6.536;2022-12-29T02:52:10;3.55;;;2.53;;
52033;SDS011;38045;52.988;6.536;2022-12-29T02:54:45;2.10;;;1.92;;
52033;SDS011;38045;52.988;6.536;2022-12-29T03:11:08;2.85;;;1.15;;
52033;SDS011;38045;52.988;6.536;2022-12-29T03:14:02;1.35;;;1.25;;
52033;SDS011;38045;52.988;6.536;2022-12-29T03:19:53;2.55;;;1.75;;
52033;SDS011;38045;52.988;6.536;2022-12-29T03:22:26;1.65;;;1.55;;
52033;SDS011;38045;52.988;6.536;2022-12-29T03:25:02;1.33;;;1.23;;
52033;SDS011;38045;52.988;6.536;2022-12-29T03:27:38;3.38;;;1.13;;
52033;SDS011;38045;52.988;6.536;2022-12-29T03:30:07;0.98;;;0.98;;
52033;SDS011;38045;52.988;6.536;2022-12-29T03:32:47;1.38;;;0.98;;
52033;SDS011;38045;52.988;6.536;2022-12-29T03:35:17;1.58;;;1.48;;
52033;SDS011;38045;52.988;6.536;2022-12-29T03:40:16;3.45;;;1.83;;
52033;SDS011;38045;52.988;6.536;2022-12-29T03:42:45;1.25;;;1.10;;
52033;SDS011;38045;52.988;6.536;2022-12-29T03:45:13;3.22;;;1.50;;
52033;SDS011;38045;52.988;6.536;2022-12-29T03:47:38;2.67;;;1.52;;
52033;SDS011;38045;52.988;6.536;2022-12-29T03:50:04;2.65;;;1.88;;
52033;SDS011;38045;52.988;6.536;2022-12-29T03:52:30;2.40;;;1.63;;
52033;SDS011;38045;52.988;6.536;2022-12-29T03:54:57;0.80;;;0.80;;
52033;SDS011;38045;52.988;6.536;2022-12-29T03:57:23;2.80;;;1.67;;
52033;SDS011;38045;52.988;6.536;2022-12-29T03:59:48;1.30;;;1.20;;
52033;SDS011;38045;52.988;6.536;2022-12-29T04:02:14;0.95;;;0.70;;
52033;SDS011;38045;52.988;6.536;2022-12-29T04:04:39;4.28;;;1.30;;
52033;SDS011;38045;52.988;6.536;2022-12-29T04:07:05;2.10;;;1.50;;
52033;SDS011;38045;52.988;6.536;2022-12-29T04:09:31;3.42;;;1.55;;
52033;SDS011;38045;52.988;6.536;2022-12-29T04:11:56;0.45;;;0.45;;
52033;SDS011;38045;52.988;6.536;2022-12-29T04:14:22;3.38;;;1.55;;
52033;SDS011;38045;52.988;6.536;2022-12-29T04:16:47;1.13;;;1.05;;
52033;SDS011;38045;52.988;6.536;2022-12-29T04:19:13;5.70;;;0.90;;
52033;SDS011;38045;52.988;6.536;2022-12-29T04:21:39;5.43;;;2.90;;
52033;SDS011;38045;52.988;6.536;2022-12-29T04:24:05;8.00;;;1.98;;
52033;SDS011;38045;52.988;6.536;2022-12-29T04:26:31;4.45;;;1.75;;
52033;SDS011;38045;52.988;6.536;2022-12-29T04:28:57;5.25;;;1.83;;
52033;SDS011;38045;52.988;6.536;2022-12-29T04:31:23;3.85;;;1.17;;
52033;SDS011;38045;52.988;6.536;2022-12-29T04:33:48;1.67;;;1.27;;
52033;SDS011;38045;52.988;6.536;2022-12-29T04:36:14;3.20;;;0.88;;
52033;SDS011;38045;52.988;6.536;2022-12-29T04:38:39;5.60;;;1.67;;
52033;SDS011;38045;52.988;6.536;2022-12-29T04:41:05;2.40;;;0.50;;
52033;SDS011;38045;52.988;6.536;2022-12-29T04:43:31;0.30;;;0.30;;
52033;SDS011;38045;52.988;6.536;2022-12-29T04:45:56;1.85;;;0.90;;
52033;SDS011;38045;52.988;6.536;2022-12-29T04:48:22;1.50;;;1.17;;
52033;SDS011;38045;52.988;6.536;2022-12-29T04:50:48;4.65;;;1.30;;
52033;SDS011;38045;52.988;6.536;2022-12-29T04:53:15;1.75;;;0.63;;
52033;SDS011;38045;52.988;6.536;2022-12-29T04:55:41;3.38;;;0.82;;
52033;SDS011;38045;52.988;6.536;2022-12-29T04:58:07;3.83;;;1.30;;
52033;SDS011;38045;52.988;6.536;2022-12-29T05:00:32;1.98;;;0.77;;
52033;SDS011;38045;52.988;6.536;2022-12-29T05:02:58;4.20;;;1.05;;
52033;SDS011;38045;52.988;6.536;2022-12-29T05:05:24;1.33;;;1.23;;
52033;SDS011;38045;52.988;6.536;2022-12-29T05:07:50;0.90;;;0.82;;
52033;SDS011;38045;52.988;6.536;2022-12-29T05:10:16;6.97;;;1.20;;
52033;SDS011;38045;52.988;6.536;2022-12-29T05:12:42;3.30;;;1.35;;
52033;SDS011;38045;52.988;6.536;2022-12-29T05:15:08;7.22;;;2.00;;
52033;SDS011;38045;52.988;6.536;2022-12-29T05:17:35;7.03;;;2.45;;
52033;SDS011;38045;52.988;6.536;2022-12-29T05:20:00;5.20;;;1.60;;
52033;SDS011;38045;52.988;6.536;2022-12-29T05:22:26;5.82;;;1.90;;
52033;SDS011;38045;52.988;6.536;2022-12-29T05:24:52;7.78;;;1.73;;
52033;SDS011;38045;52.988;6.536;2022-12-29T05:27:17;3.42;;;1.20;;
52033;SDS011;38045;52.988;6.536;2022-12-29T05:29:43;4.78;;;1.67;;
52033;SDS011;38045;52.988;6.536;2022-12-29T05:32:08;7.35;;;1.55;;
52033;SDS011;38045;52.988;6.536;2022-12-29T05:34:34;4.18;;;2.30;;
52033;SDS011;38045;52.988;6.536;2022-12-29T05:37:00;3.17;;;1.15;;
52033;SDS011;38045;52.988;6.536;2022-12-29T05:39:27;6.53;;;1.20;;
52033;SDS011;38045;52.988;6.536;2022-12-29T05:41:53;3.53;;;1.73;;
52033;SDS011;38045;52.988;6.536;2022-12-29T05:44:18;7.40;;;2.53;;
52033;SDS011;38045;52.988;6.536;2022-12-29T05:46:44;3.80;;;0.88;;
52033;SDS011;38045;52.988;6.536;2022-12-29T05:49:09;5.80;;;1.98;;
52033;SDS011;38045;52.988;6.536;2022-12-29T05:51:35;1.92;;;1.08;;
52033;SDS011;38045;52.988;6.536;2022-12-29T05:54:01;4.57;;;2.30;;
52033;SDS011;38045;52.988;6.536;2022-12-29T05:56:26;8.93;;;1.40;;
52033;SDS011;38045;52.988;6.536;2022-12-29T05:58:52;7.13;;;2.00;;
52033;SDS011;38045;52.988;6.536;2022-12-29T06:01:17;3.90;;;1.55;;
52033;SDS011;38045;52.988;6.536;2022-12-29T06:03:43;4.32;;;1.55;;
52033;SDS011;38045;52.988;6.536;2022-12-29T06:06:08;8.13;;;2.17;;
52033;SDS011;38045;52.988;6.536;2022-12-29T06:08:34;4.22;;;1.48;;
52033;SDS011;38045;52.988;6.536;2022-12-29T06:11:00;11.45;;;1.55;;
52033;SDS011;38045;52.988;6.536;2022-12-29T06:13:25;8.45;;;1.52;;
52033;SDS011;38045;52.988;6.536;2022-12-29T06:15:52;5.80;;;1.27;;
52033;SDS011;38045;52.988;6.536;2022-12-29T06:18:18;4.90;;;1.15;;
52033;SDS011;38045;52.988;6.536;2022-12-29T06:20:43;5.28;;;1.73;;
52033;SDS011;38045;52.988;6.536;2022-12-29T06:23:09;7.30;;;2.67;;
52033;SDS011;38045;52.988;6.536;2022-12-29T06:25:36;9.48;;;1.83;;
52033;SDS011;38045;52.988;6.536;2022-12-29T06:28:02;11.48;;;2.20;;
52033;SDS011;38045;52.988;6.536;2022-12-29T06:30:28;6.85;;;2.65;;
52033;SDS011;38045;52.988;6.536;2022-12-29T06:32:53;10.07;;;2.30;;
52033;SDS011;38045;52.988;6.536;2022-12-29T06:35:20;4.80;;;1.73;;
52033;SDS011;38045;52.988;6.536;2022-12-29T06:37:47;12.05;;;2.47;;
52033;SDS011;38045;52.988;6.536;2022-12-29T06:40:13;9.10;;;1.73;;
52033;SDS011;38045;52.988;6.536;2022-12-29T06:42:39;8.07;;;1.77;;
52033;SDS011;38045;52.988;6.536;2022-12-29T06:45:04;10.13;;;2.15;;
52033;SDS011;38045;52.988;6.536;2022-12-29T06:47:30;4.78;;;1.65;;
52033;SDS011;38045;52.988;6.536;2022-12-29T06:49:56;7.50;;;2.75;;
52033;SDS011;38045;52.988;6.536;2022-12-29T06:52:21;11.80;;;3.30;;
52033;SDS011;38045;52.988;6.536;2022-12-29T06:54:49;7.95;;;2.13;;
52033;SDS011;38045;52.988;6.536;2022-12-29T06:57:14;5.78;;;1.63;;
52033;SDS011;38045;52.988;6.536;2022-12-29T06:59:40;9.38;;;2.63;;
52033;SDS011;38045;52.988;6.536;2022-12-29T07:02:06;8.95;;;3.00;;
52033;SDS011;38045;52.988;6.536;2022-12-29T07:04:31;7.90;;;2.03;;
52033;SDS011;38045;52.988;6.536;2022-12-29T07:06:57;6.05;;;1.65;;
52033;SDS011;38045;52.988;6.536;2022-12-29T07:09:23;8.73;;;3.30;;
52033;SDS011;38045;52.988;6.536;2022-12-29T07:11:48;3.70;;;1.67;;
52033;SDS011;38045;52.988;6.536;2022-12-29T07:14:14;9.82;;;2.28;;
52033;SDS011;38045;52.988;6.536;2022-12-29T07:16:39;8.13;;;2.17;;
52033;SDS011;38045;52.988;6.536;2022-12-29T07:19:05;7.95;;;2.20;;
52033;SDS011;38045;52.988;6.536;2022-12-29T07:21:31;9.93;;;1.83;;
52033;SDS011;38045;52.988;6.536;2022-12-29T07:23:56;7.70;;;2.95;;
52033;SDS011;38045;52.988;6.536;2022-12-29T07:26:22;7.57;;;2.10;;
52033;SDS011;38045;52.988;6.536;2022-12-29T07:28:47;7.85;;;2.22;;
52033;SDS011;38045;52.988;6.536;2022-12-29T07:31:14;14.73;;;3.40;;
52033;SDS011;38045;52.988;6.536;2022-12-29T07:33:41;13.18;;;2.17;;
52033;SDS011;38045;52.988;6.536;2022-12-29T07:36:08;9.98;;;2.33;;
52033;SDS011;38045;52.988;6.536;2022-12-29T07:38:34;9.32;;;2.95;;
52033;SDS011;38045;52.988;6.536;2022-12-29T07:41:00;13.70;;;2.95;;
52033;SDS011;38045;52.988;6.536;2022-12-29T07:43:26;5.28;;;2.00;;
52033;SDS011;38045;52.988;6.536;2022-12-29T07:45:52;14.55;;;2.20;;
52033;SDS011;38045;52.988;6.536;2022-12-29T07:48:18;6.13;;;2.05;;
52033;SDS011;38045;52.988;6.536;2022-12-29T07:50:43;10.68;;;3.30;;
52033;SDS011;38045;52.988;6.536;2022-12-29T07:53:09;10.68;;;4.00;;
52033;SDS011;38045;52.988;6.536;2022-12-29T07:55:35;14.52;;;3.83;;
52033;SDS011;38045;52.988;6.536;2022-12-29T07:58:00;7.25;;;2.28;;
52033;SDS011;38045;52.988;6.536;2022-12-29T08:00:26;4.53;;;1.70;;
52033;SDS011;38045;52.988;6.536;2022-12-29T08:02:52;7.93;;;2.63;;
52033;SDS011;38045;52.988;6.536;2022-12-29T08:05:18;8.93;;;3.40;;
52033;SDS011;38045;52.988;6.536;2022-12-29T08:07:44;6.22;;;1.77;;
52033;SDS011;38045;52.988;6.536;2022-12-29T08:10:10;14.18;;;2.67;;
52033;SDS011;38045;52.988;6.536;2022-12-29T08:12:40;10.45;;;2.42;;
52033;SDS011;38045;52.988;6.536;2022-12-29T08:15:06;14.73;;;2.95;;
52033;SDS011;38045;52.988;6.536;2022-12-29T08:17:33;12.82;;;3.03;;
52033;SDS011;38045;52.988;6.536;2022-12-29T08:19:58;7.65;;;3.33;;
52033;SDS011;38045;52.988;6.536;2022-12-29T08:22:24;11.15;;;2.33;;
52033;SDS011;38045;52.988;6.536;2022-12-29T08:24:50;8.80;;;2.83;;
52033;SDS011;38045;52.988;6.536;2022-12-29T08:27:16;13.10;;;2.67;;
52033;SDS011;38045;52.988;6.536;2022-12-29T08:29:42;14.68;;;2.20;;
52033;SDS011;38045;52.988;6.536;2022-12-29T08:32:07;18.58;;;4.55;;
52033;SDS011;38045;52.988;6.536;2022-12-29T08:34:33;7.88;;;2.58;;
52033;SDS011;38045;52.988;6.536;2022-12-29T08:36:59;8.77;;;2.80;;
52033;SDS011;38045;52.988;6.536;2022-12-29T08:39:24;21.08;;;5.25;;
52033;SDS011;38045;52.988;6.536;2022-12-29T08:41:50;13.73;;;3.67;;
52033;SDS011;38045;52.988;6.536;2022-12-29T08:44:15;17.23;;;4.38;;
52033;SDS011;38045;52.988;6.536;2022-12-29T08:46:41;17.70;;;4.68;;
52033;SDS011;38045;52.988;6.536;2022-12-29T08:49:07;14.80;;;3.80;;
52033;SDS011;38045;52.988;6.536;2022-12-29T08:51:32;9.30;;;2.78;;
52033;SDS011;38045;52.988;6.536;2022-12-29T08:53:58;6.60;;;2.08;;
52033;SDS011;38045;52.988;6.536;2022-12-29T08:56:24;14.10;;;3.15;;
52033;SDS011;38045;52.988;6.536;2022-12-29T08:58:50;6.57;;;2.63;;
52033;SDS011;38045;52.988;6.536;2022-12-29T09:01:16;9.75;;;3.42;;
52033;SDS011;38045;52.988;6.536;2022-12-29T09:03:42;13.95;;;4.97;;
52033;SDS011;38045;52.988;6.536;2022-12-29T09:06:07;7.22;;;2.95;;
52033;SDS011;38045;52.988;6.536;2022-12-29T09:08:33;23.92;;;4.38;;
52033;SDS011;38045;52.988;6.536;2022-12-29T09:11:09;9.82;;;3.08;;
52033;SDS011;38045;52.988;6.536;2022-12-29T09:13:42;7.20;;;2.28;;
52033;SDS011;38045;52.988;6.536;2022-12-29T09:16:08;16.75;;;3.58;;
52033;SDS011;38045;52.988;6.536;2022-12-29T09:18:35;9.40;;;1.98;;
52033;SDS011;38045;52.988;6.536;2022-12-29T09:21:02;10.18;;;2.88;;
52033;SDS011;38045;52.988;6.536;2022-12-29T09:23:29;12.50;;;4.18;;
52033;SDS011;38045;52.988;6.536;2022-12-29T09:25:55;6.53;;;2.70;;
52033;SDS011;38045;52.988;6.536;2022-12-29T09:28:21;12.77;;;3.95;;
52033;SDS011;38045;52.988;6.536;2022-12-29T09:30:47;17.48;;;4.68;;
52033;SDS011;38045;52.988;6.536;2022-12-29T09:33:13;15.88;;;3.42;;
52033;SDS011;38045;52.988;6.536;2022-12-29T09:35:42;15.82;;;3.67;;
52033;SDS011;38045;52.988;6.536;2022-12-29T09:38:09;6.88;;;2.63;;
52033;SDS011;38045;52.988;6.536;2022-12-29T09:40:35;15.05;;;3.92;;
52033;SDS011;38045;52.988;6.536;2022-12-29T09:43:09;12.52;;;2.90;;
52033;SDS011;38045;52.988;6.536;2022-12-29T09:45:43;20.02;;;4.00;;
52033;SDS011;38045;52.988;6.536;2022-12-29T09:48:31;10.53;;;3.33;;
52033;SDS011;38045;52.988;6.536;2022-12-29T09:51:02;12.75;;;3.35;;
52033;SDS011;38045;52.988;6.536;2022-12-29T09:53:38;15.25;;;3.40;;
52033;SDS011;38045;52.988;6.536;2022-12-29T09:56:19;8.13;;;2.72;;
52033;SDS011;38045;52.988;6.536;2022-12-29T10:01:21;16.00;;;4.75;;
52033;SDS011;38045;52.988;6.536;2022-12-29T10:03:56;10.98;;;3.17;;
52033;SDS011;38045;52.988;6.536;2022-12-29T10:17:35;6.97;;;2.85;;
52033;SDS011;38045;52.988;6.536;2022-12-29T10:20:20;14.65;;;4.32;;
52033;SDS011;38045;52.988;6.536;2022-12-29T10:25:59;6.65;;;2.75;;
52033;SDS011;38045;52.988;6.536;2022-12-29T10:28:40;16.55;;;2.97;;
52033;SDS011;38045;52.988;6.536;2022-12-29T10:31:16;9.65;;;3.10;;
52033;SDS011;38045;52.988;6.536;2022-12-29T10:33:48;14.15;;;4.43;;
52033;SDS011;38045;52.988;6.536;2022-12-29T10:36:21;14.43;;;3.85;;
52033;SDS011;38045;52.988;6.536;2022-12-29T10:41:46;6.93;;;1.45;;
52033;SDS011;38045;52.988;6.536;2022-12-29T10:44:15;11.85;;;3.42;;
52033;SDS011;38045;52.988;6.536;2022-12-29T10:46:43;8.73;;;2.20;;
52033;SDS011;38045;52.988;6.536;2022-12-29T10:49:16;10.05;;;3.53;;
52033;SDS011;38045;52.988;6.536;2022-12-29T10:51:43;13.27;;;4.32;;
52033;SDS011;38045;52.988;6.536;2022-12-29T10:56:44;10.73;;;3.17;;
52033;SDS011;38045;52.988;6.536;2022-12-29T11:07:32;3.20;;;1.70;;
52033;SDS011;38045;52.988;6.536;2022-12-29T11:13:14;13.32;;;3.38;;
52033;SDS011;38045;52.988;6.536;2022-12-29T11:15:49;4.22;;;1.92;;
52033;SDS011;38045;52.988;6.536;2022-12-29T11:20:59;9.40;;;1.85;;
52033;SDS011;38045;52.988;6.536;2022-12-29T11:28:39;11.35;;;3.00;;
52033;SDS011;38045;52.988;6.536;2022-12-29T11:31:06;4.45;;;1.75;;
52033;SDS011;38045;52.988;6.536;2022-12-29T11:33:34;10.25;;;3.30;;
52033;SDS011;38045;52.988;6.536;2022-12-29T11:36:05;13.40;;;2.60;;
52033;SDS011;38045;52.988;6.536;2022-12-29T11:38:53;10.00;;;3.35;;
52033;SDS011;38045;52.988;6.536;2022-12-29T11:41:24;12.27;;;3.83;;
52033;SDS011;38045;52.988;6.536;2022-12-29T11:43:52;7.22;;;2.85;;
52033;SDS011;38045;52.988;6.536;2022-12-29T11:48:50;5.40;;;2.35;;
52033;SDS011;38045;52.988;6.536;2022-12-29T11:54:09;16.88;;;2.95;;
52033;SDS011;38045;52.988;6.536;2022-12-29T11:56:48;14.55;;;4.05;;
52033;SDS011;38045;52.988;6.536;2022-12-29T11:59:23;18.77;;;4.28;;
52033;SDS011;38045;52.988;6.536;2022-12-29T12:01:54;14.27;;;4.47;;
52033;SDS011;38045;52.988;6.536;2022-12-29T12:04:23;15.38;;;4.18;;
52033;SDS011;38045;52.988;6.536;2022-12-29T12:09:28;10.35;;;3.95;;
52033;SDS011;38045;52.988;6.536;2022-12-29T12:12:23;18.42;;;4.75;;
52033;SDS011;38045;52.988;6.536;2022-12-29T12:14:55;14.95;;;3.72;;
52033;SDS011;38045;52.988;6.536;2022-12-29T12:17:29;15.82;;;4.07;;
52033;SDS011;38045;52.988;6.536;2022-12-29T12:20:20;14.57;;;4.70;;
52033;SDS011;38045;52.988;6.536;2022-12-29T12:25:25;17.88;;;3.40;;
52033;SDS011;38045;52.988;6.536;2022-12-29T12:28:00;12.57;;;4.45;;
52033;SDS011;38045;52.988;6.536;2022-12-29T12:30:36;13.02;;;3.83;;
52033;SDS011;38045;52.988;6.536;2022-12-29T12:33:12;8.20;;;2.45;;
52033;SDS011;38045;52.988;6.536;2022-12-29T12:41:16;22.98;;;6.22;;
52033;SDS011;38045;52.988;6.536;2022-12-29T13:06:43;17.00;;;5.55;;
52033;SDS011;38045;52.988;6.536;2022-12-29T13:09:25;14.98;;;2.92;;
52033;SDS011;38045;52.988;6.536;2022-12-29T13:12:00;17.63;;;2.45;;
52033;SDS011;38045;52.988;6.536;2022-12-29T13:14:59;11.23;;;2.80;;
52033;SDS011;38045;52.988;6.536;2022-12-29T13:25:41;5.57;;;2.03;;
52033;SDS011;38045;52.988;6.536;2022-12-29T13:28:23;14.20;;;3.22;;
52033;SDS011;38045;52.988;6.536;2022-12-29T13:30:59;7.75;;;3.55;;
52033;SDS011;38045;52.988;6.536;2022-12-29T13:33:55;9.00;;;2.55;;
52033;SDS011;38045;52.988;6.536;2022-12-29T13:39:24;8.63;;;1.98;;
52033;SDS011;38045;52.988;6.536;2022-12-29T13:41:54;5.43;;;1.38;;
52033;SDS011;38045;52.988;6.536;2022-12-29T13:44:35;11.60;;;1.98;;
52033;SDS011;38045;52.988;6.536;2022-12-29T13:47:48;14.32;;;3.35;;
52033;SDS011;38045;52.988;6.536;2022-12-29T13:49:54;14.00;;;1.98;;
52033;SDS011;38045;52.988;6.536;2022-12-29T13:52:25;6.28;;;2.95;;
52033;SDS011;38045;52.988;6.536;2022-12-29T13:55:18;12.98;;;2.70;;
52033;SDS011;38045;52.988;6.536;2022-12-29T13:57:54;18.27;;;4.70;;
52033;SDS011;38045;52.988;6.536;2022-12-29T14:00:22;3.92;;;3.58;;
52033;SDS011;38045;52.988;6.536;2022-12-29T14:05:33;12.98;;;5.55;;
52033;SDS011;38045;52.988;6.536;2022-12-29T14:08:00;16.98;;;3.80;;
52033;SDS011;38045;52.988;6.536;2022-12-29T14:12:59;17.80;;;3.58;;
52033;SDS011;38045;52.988;6.536;2022-12-29T14:15:38;16.52;;;4.20;;
52033;SDS011;38045;52.988;6.536;2022-12-29T14:18:12;15.57;;;2.78;;
52033;SDS011;38045;52.988;6.536;2022-12-29T14:20:51;4.47;;;2.05;;
52033;SDS011;38045;52.988;6.536;2022-12-29T14:23:26;7.28;;;2.72;;
52033;SDS011;38045;52.988;6.536;2022-12-29T14:28:41;13.85;;;3.90;;
52033;SDS011;38045;52.988;6.536;2022-12-29T14:31:53;8.07;;;2.08;;
52033;SDS011;38045;52.988;6.536;2022-12-29T14:39:00;5.53;;;1.10;;
52033;SDS011;38045;52.988;6.536;2022-12-29T14:41:36;2.92;;;1.70;;
52033;SDS011;38045;52.988;6.536;2022-12-29T14:46:45;9.40;;;2.87;;
52033;SDS011;38045;52.988;6.536;2022-12-29T14:49:19;4.97;;;1.70;;
52033;SDS011;38045;52.988;6.536;2022-12-29T14:51:46;12.25;;;3.58;;
52033;SDS011;38045;52.988;6.536;2022-12-29T14:54:34;7.93;;;2.25;;
52033;SDS011;38045;52.988;6.536;2022-12-29T14:57:19;4.18;;;2.33;;
52033;SDS011;38045;52.988;6.536;2022-12-29T15:00:12;8.50;;;2.80;;
52033;SDS011;38045;52.988;6.536;2022-12-29T15:02:44;5.28;;;2.22;;
52033;SDS011;38045;52.988;6.536;2022-12-29T15:05:22;9.35;;;1.58;;
52033;SDS011;38045;52.988;6.536;2022-12-29T15:07:55;7.25;;;2.17;;
52033;SDS011;38045;52.988;6.536;2022-12-29T15:10:21;4.65;;;1.38;;
52033;SDS011;38045;52.988;6.536;2022-12-29T15:12:50;8.25;;;2.53;;
52033;SDS011;38045;52.988;6.536;2022-12-29T15:15:19;11.10;;;3.40;;
52033;SDS011;38045;52.988;6.536;2022-12-29T15:17:45;16.83;;;2.67;;
52033;SDS011;38045;52.988;6.536;2022-12-29T15:20:17;10.23;;;2.03;;
52033;SDS011;38045;52.988;6.536;2022-12-29T15:22:53;6.10;;;2.13;;
52033;SDS011;38045;52.988;6.536;2022-12-29T15:25:47;8.88;;;2.17;;
52033;SDS011;38045;52.988;6.536;2022-12-29T15:28:15;4.70;;;2.53;;
52033;SDS011;38045;52.988;6.536;2022-12-29T15:30:55;5.15;;;1.05;;
52033;SDS011;38045;52.988;6.536;2022-12-29T15:33:28;6.57;;;2.83;;
52033;SDS011;38045;52.988;6.536;2022-12-29T15:35:54;7.93;;;1.27;;
52033;SDS011;38045;52.988;6.536;2022-12-29T15:38:23;7.25;;;2.45;;
52033;SDS011;38045;52.988;6.536;2022-12-29T15:41:00;11.13;;;2.60;;
52033;SDS011;38045;52.988;6.536;2022-12-29T15:43:33;6.88;;;1.58;;
52033;SDS011;38045;52.988;6.536;2022-12-29T15:46:08;4.45;;;1.90;;
52033;SDS011;38045;52.988;6.536;2022-12-29T15:48:36;5.45;;;1.35;;
52033;SDS011;38045;52.988;6.536;2022-12-29T15:51:03;9.38;;;1.60;;
52033;SDS011;38045;52.988;6.536;2022-12-29T15:53:43;10.95;;;1.77;;
52033;SDS011;38045;52.988;6.536;2022-12-29T15:56:13;7.25;;;1.90;;
52033;SDS011;38045;52.988;6.536;2022-12-29T15:58:39;8.23;;;1.80;;
52033;SDS011;38045;52.988;6.536;2022-12-29T16:01:34;7.07;;;4.10;;
52033;SDS011;38045;52.988;6.536;2022-12-29T16:04:06;11.75;;;2.00;;
52033;SDS011;38045;52.988;6.536;2022-12-29T16:06:34;12.70;;;2.38;;
52033;SDS011;38045;52.988;6.536;2022-12-29T16:09:15;12.07;;;2.38;;
52033;SDS011;38045;52.988;6.536;2022-12-29T16:14:20;11.40;;;4.38;;
52033;SDS011;38045;52.988;6.536;2022-12-29T16:16:50;11.27;;;2.33;;
52033;SDS011;38045;52.988;6.536;2022-12-29T16:19:21;6.10;;;2.90;;
52033;SDS011;38045;52.988;6.536;2022-12-29T16:21:49;7.22;;;2.05;;
52033;SDS011;38045;52.988;6.536;2022-12-29T16:24:19;8.52;;;2.80;;
52033;SDS011;38045;52.988;6.536;2022-12-29T16:26:54;9.13;;;3.10;;
52033;SDS011;38045;52.988;6.536;2022-12-29T16:29:41;7.03;;;2.10;;
52033;SDS011;38045;52.988;6.536;2022-12-29T16:35:07;7.15;;;1.95;;
52033;SDS011;38045;52.988;6.536;2022-12-29T16:37:35;5.43;;;2.20;;
52033;SDS011;38045;52.988;6.536;2022-12-29T16:47:43;10.38;;;1.98;;
52033;SDS011;38045;52.988;6.536;2022-12-29T16:50:34;3.97;;;1.45;;
52033;SDS011;38045;52.988;6.536;2022-12-29T16:53:01;7.55;;;2.60;;
52033;SDS011;38045;52.988;6.536;2022-12-29T16:55:28;1.92;;;0.75;;
52033;SDS011;38045;52.988;6.536;2022-12-29T16:57:54;6.07;;;1.13;;
52033;SDS011;38045;52.988;6.536;2022-12-29T17:00:22;1.10;;;1.00;;
52033;SDS011;38045;52.988;6.536;2022-12-29T17:05:18;3.63;;;1.08;;
52033;SDS011;38045;52.988;6.536;2022-12-29T17:07:44;2.60;;;0.50;;
52033;SDS011;38045;52.988;6.536;2022-12-29T17:10:10;0.50;;;0.47;;
52033;SDS011;38045;52.988;6.536;2022-12-29T17:12:39;3.65;;;1.27;;
52033;SDS011;38045;52.988;6.536;2022-12-29T17:17:54;4.80;;;1.88;;
52033;SDS011;38045;52.988;6.536;2022-12-29T17:20:27;1.55;;;0.82;;
52033;SDS011;38045;52.988;6.536;2022-12-29T17:22:54;2.30;;;1.05;;
52033;SDS011;38045;52.988;6.536;2022-12-29T17:25:41;6.18;;;1.83;;
52033;SDS011;38045;52.988;6.536;2022-12-29T17:30:42;2.17;;;1.40;;
52033;SDS011;38045;52.988;6.536;2022-12-29T17:33:12;2.70;;;1.20;;
52033;SDS011;38045;52.988;6.536;2022-12-29T17:35:39;5.18;;;1.38;;
52033;SDS011;38045;52.988;6.536;2022-12-29T17:38:47;7.28;;;2.05;;
52033;SDS011;38045;52.988;6.536;2022-12-29T17:40:55;7.68;;;2.35;;
52033;SDS011;38045;52.988;6.536;2022-12-29T17:43:22;12.77;;;2.67;;
52033;SDS011;38045;52.988;6.536;2022-12-29T17:45:52;6.70;;;1.77;;
52033;SDS011;38045;52.988;6.536;2022-12-29T17:48:19;2.22;;;2.03;;
52033;SDS011;38045;52.988;6.536;2022-12-29T17:50:45;4.32;;;1.30;;
52033;SDS011;38045;52.988;6.536;2022-12-29T17:53:13;12.52;;;2.13;;
52033;SDS011;38045;52.988;6.536;2022-12-29T17:55:41;5.65;;;2.90;;
52033;SDS011;38045;52.988;6.536;2022-12-29T17:58:28;5.00;;;2.35;;
52033;SDS011;38045;52.988;6.536;2022-12-29T18:00:54;13.52;;;4.43;;
52033;SDS011;38045;52.988;6.536;2022-12-29T18:03:22;5.63;;;2.83;;